Northsea Beta — 9HA2594 — position and weather

sailwx.info

Track history (hours):
 
Tides and Currents Weather Stations Pressure Air Temp Water Temp Dewpoint Dewpoint Depression Visibility Wind Speed Wind Dir Waves Ship Positions

Northsea Beta

Last reported at 2017-Jul-17 08:04 UTC. Time now 2017-Jul-23 06:42 UTC.
Position N 33°11' W 008°40'.

Length 110 m; draft 5.7 m.

Type: Tanker. MMSI: 248970000.

Date/timePositionNaut miles runAvg speedWind from/ knotsBaromVisibWave heightAir tempDewpointWater temp
2017-Jul-17 08:04N 33°11' W 008°40'0 0.1
2017-Jul-17 07:58N 33°11' W 008°40'4 0.3
2017-Jul-16 18:12N 33°15' W 008°42'211.2
2017-Jul-16 18:01N 33°16' W 008°43'510.5
2017-Jul-16 17:30N 33°22' W 008°45'510.4
2017-Jul-16 17:00N 33°27' W 008°47'510.3
2017-Jul-16 16:31N 33°31' W 008°49'510.2
2017-Jul-16 16:01N 33°36' W 008°51'510.0
2017-Jul-16 15:30N 33°41' W 008°53'510.2
2017-Jul-16 15:00N 33°46' W 008°55'510.3
2017-Jul-16 14:30N 33°51' W 008°57'5 9.9
2017-Jul-16 14:01N 33°55' W 008°58'5 9.1
2017-Jul-16 13:30N 33°60' W 008°60'5 9.4
2017-Jul-16 13:00N 34°04' W 009°01'5 9.4
2017-Jul-16 12:31N 34°09' W 009°03'5 9.3
2017-Jul-16 12:00N 34°13' W 009°05'5 9.3
2017-Jul-16 11:31N 34°18' W 009°07'5 9.2
2017-Jul-16 11:01N 34°22' W 009°08'5 9.1
2017-Jul-16 10:31N 34°26' W 009°10'5 9.2
2017-Jul-16 10:00N 34°31' W 009°12'5 9.2
2017-Jul-16 09:31N 34°35' W 009°13'5 9.1
2017-Jul-16 09:00N 34°39' W 009°15'5 9.2
2017-Jul-16 08:30N 34°44' W 009°17'510.3
2017-Jul-16 08:00N 34°49' W 009°19'612.0
2017-Jul-16 07:31N 34°54' W 009°21'611.3
2017-Jul-16 07:00N 34°60' W 009°23'510.0
2017-Jul-16 06:31N 35°04' W 009°25'510.2
2017-Jul-16 06:01N 35°09' W 009°27'510.3
2017-Jul-16 05:30N 35°14' W 009°29'510.1
2017-Jul-16 05:01N 35°19' W 009°31'510.0
2017-Jul-16 04:30N 35°24' W 009°32'510.1
2017-Jul-16 04:00N 35°29' W 009°34'510.1
2017-Jul-16 03:30N 35°33' W 009°36'510.2
2017-Jul-16 03:01N 35°38' W 009°39'510.4
2017-Jul-16 02:31N 35°43' W 009°40'510.4
2017-Jul-16 02:00N 35°48' W 009°42'510.3
2017-Jul-16 01:30N 35°53' W 009°44'510.4
2017-Jul-16 01:01N 35°58' W 009°46'510.2
2017-Jul-16 00:30N 36°03' W 009°48'510.2
2017-Jul-16 00:01N 36°07' W 009°50'510.2
2017-Jul-15 23:31N 36°12' W 009°52'510.2
2017-Jul-15 23:01N 36°17' W 009°54'510.0
2017-Jul-15 22:30N 36°22' W 009°56'510.0
2017-Jul-15 22:01N 36°27' W 009°58'510.1
2017-Jul-15 21:31N 36°31' W 009°60'510.0
2017-Jul-15 21:01N 36°36' W 010°01'510.4
2017-Jul-15 20:30N 36°42' W 010°01'510.3
2017-Jul-15 20:00N 36°47' W 010°01'510.3
2017-Jul-15 19:30N 36°52' W 010°01'510.2
2017-Jul-15 19:00N 36°57' W 010°01'510.2
2017-Jul-15 18:30N 37°02' W 010°01'510.2
2017-Jul-15 18:00N 37°07' W 010°01'510.4
2017-Jul-15 17:30N 37°13' W 010°02'510.3
2017-Jul-15 17:00N 37°18' W 010°02'510.1
2017-Jul-15 16:30N 37°23' W 010°02'510.2
2017-Jul-15 16:00N 37°28' W 010°02'510.3
2017-Jul-15 15:31N 37°33' W 010°02'510.2
2017-Jul-15 15:00N 37°38' W 010°02'1110.4
2017-Jul-15 14:00N 37°49' W 010°02'510.1
2017-Jul-15 13:30N 37°54' W 010°02'510.4
2017-Jul-15 13:01N 37°59' W 010°02'611.0
2017-Jul-15 12:30N 38°04' W 010°02'510.7
2017-Jul-15 12:01N 38°09' W 010°02'611.3
2017-Jul-15 11:30N 38°15' W 010°02'611.1
2017-Jul-15 11:00N 38°21' W 010°03'510.2
2017-Jul-15 10:31N 38°26' W 010°03'510.1
2017-Jul-15 10:00N 38°31' W 010°03'5 9.9
2017-Jul-15 09:31N 38°36' W 010°05'5 9.9
2017-Jul-15 09:00N 38°41' W 010°06'5 9.8
2017-Jul-15 08:30N 38°45' W 010°06'5 9.9
2017-Jul-15 08:00N 38°50' W 010°06'510.1
2017-Jul-15 07:30N 38°55' W 010°06'510.3
2017-Jul-15 07:00N 39°01' W 010°06'510.0
2017-Jul-15 06:30N 39°05' W 010°06'510.2
2017-Jul-15 06:00N 39°11' W 010°06'510.2
2017-Jul-15 05:31N 39°16' W 010°07'710.9
2017-Jul-15 04:54N 39°22' W 010°06'11110.5
2017-Jul-14 18:20N 41°13' W 010°06'3910.4
2017-Jul-14 14:35N 41°52' W 010°06'110.8
2017-Jul-14 14:29N 41°53' W 010°06'610.2
2017-Jul-14 13:51N 41°60' W 010°06'  
2017-Jul-12 03:36N 50°04' W 001°60'113.5
2017-Jul-12 03:30N 50°04' W 001°58'612.7
2017-Jul-12 03:00N 50°01' W 001°49'612.5
2017-Jul-12 02:30N 49°58' W 001°41'612.2
2017-Jul-12 02:00N 49°56' W 001°32'611.8
2017-Jul-12 01:30N 49°53' W 001°24'611.0
2017-Jul-12 01:00N 49°51' W 001°16'510.2
2017-Jul-12 00:30N 49°49' W 001°09'5 9.4
2017-Jul-12 00:00N 49°47' W 001°02'31 7.1
2017-Jul-11 19:38N 49°33' W 000°19'3 7.4
2017-Jul-11 19:18N 49°32' W 000°16'2 7.5
2017-Jul-11 18:58N 49°31' W 000°12'4 7.6
2017-Jul-11 18:30N 49°29' W 000°08'0 0.6
2017-Jul-11 17:59N 49°29' W 000°08'0 0.0
2017-Jul-11 17:26N 49°29' W 000°08'0 0.0
2017-Jul-11 16:56N 49°29' W 000°08'0 0.0
2017-Jul-11 16:26N 49°29' W 000°08'0 0.0
2017-Jul-11 15:57N 49°29' W 000°08'0 0.0
2017-Jul-11 15:20N 49°29' W 000°08'0 0.0
2017-Jul-11 14:50N 49°29' W 000°08'0 0.0
2017-Jul-11 14:14N 49°29' W 000°07'0 0.2
2017-Jul-11 13:59N 49°29' W 000°07'0 0.1
2017-Jul-11 13:29N 49°29' W 000°07'0 0.0
2017-Jul-11 12:59N 49°29' W 000°07'0 0.0
2017-Jul-11 12:29N 49°29' W 000°07'0 0.0
2017-Jul-11 11:59N 49°29' W 000°07'0 0.0
2017-Jul-11 11:29N 49°29' W 000°07'0 0.0
2017-Jul-11 10:56N 49°29' W 000°07'0 0.0
2017-Jul-11 10:23N 49°29' W 000°07'0 0.0
2017-Jul-11 09:56N 49°29' W 000°07'0 0.0
2017-Jul-11 09:29N 49°29' W 000°07'0 0.0
2017-Jul-11 08:59N 49°29' W 000°07'0 0.1
2017-Jul-11 08:29N 49°29' W 000°07'0 0.1
2017-Jul-11 07:56N 49°29' W 000°07'0 0.0
2017-Jul-11 07:26N 49°29' W 000°07'0 0.0
2017-Jul-11 06:59N 49°29' W 000°07'0 0.0
2017-Jul-11 05:20N 49°29' W 000°07'0 0.0
2017-Jul-11 04:47N 49°29' W 000°08'0 0.0
2017-Jul-11 04:20N 49°29' W 000°07'0 0.0
2017-Jul-11 03:38N 49°29' W 000°07'0 0.0
2017-Jul-11 03:26N 49°29' W 000°07'0 0.1
2017-Jul-11 02:56N 49°29' W 000°07'0 0.1
2017-Jul-11 02:20N 49°29' W 000°07'0 0.0
2017-Jul-11 01:59N 49°29' W 000°07'0 0.1
2017-Jul-11 01:26N 49°29' W 000°07'0 0.0
2017-Jul-11 00:59N 49°29' W 000°07'0 0.0
2017-Jul-11 00:29N 49°29' W 000°07'0 0.0
2017-Jul-10 23:59N 49°29' W 000°07'0 0.0
2017-Jul-10 23:29N 49°29' W 000°07'0 0.0
2017-Jul-10 22:59N 49°29' W 000°07'0 0.0
2017-Jul-10 22:29N 49°29' W 000°07'0 0.0
2017-Jul-10 21:59N 49°29' W 000°07'0 0.0
2017-Jul-10 21:29N 49°29' W 000°07'0 0.0
2017-Jul-10 20:59N 49°29' W 000°07'0 0.0
2017-Jul-10 20:29N 49°29' W 000°07'0 0.0
2017-Jul-10 19:56N 49°29' W 000°07'0 0.0
2017-Jul-10 19:23N 49°29' W 000°07'0 0.1
2017-Jul-10 18:59N 49°29' W 000°07'0 0.0
2017-Jul-10 17:47N 49°29' W 000°07'0 0.0
2017-Jul-10 17:26N 49°29' W 000°07'0 0.0
2017-Jul-10 16:20N 49°29' W 000°08'0 0.0
2017-Jul-10 15:56N 49°29' W 000°08'0 0.0
2017-Jul-10 15:20N 49°29' W 000°08'0 0.0
2017-Jul-10 14:53N 49°29' W 000°08'0 0.0
2017-Jul-10 14:29N 49°29' W 000°08'0 0.1
2017-Jul-10 13:44N 49°29' W 000°07'0 0.1
2017-Jul-10 13:26N 49°29' W 000°07'0 0.0
2017-Jul-10 12:50N 49°29' W 000°07'0 0.1
2017-Jul-10 12:23N 49°29' W 000°07'0 0.0
2017-Jul-10 11:59N 49°29' W 000°07'0 0.0
2017-Jul-10 11:26N 49°29' W 000°07'0 0.0
2017-Jul-10 10:56N 49°29' W 000°07'0 0.0
2017-Jul-10 10:29N 49°29' W 000°07'0 0.0
2017-Jul-10 09:59N 49°29' W 000°07'0 0.0
2017-Jul-10 09:29N 49°29' W 000°07'0 0.0
2017-Jul-10 08:59N 49°29' W 000°07'0 0.0
2017-Jul-10 08:29N 49°29' W 000°07'0 0.0
2017-Jul-10 07:59N 49°29' W 000°07'0 0.0
2017-Jul-10 07:26N 49°29' W 000°07'0 0.0
2017-Jul-10 06:59N 49°29' W 000°07'0 0.0
2017-Jul-10 06:26N 49°29' W 000°07'0 0.1
2017-Jul-10 05:59N 49°29' W 000°07'0 0.1
2017-Jul-10 05:29N 49°29' W 000°07'0 0.1
2017-Jul-10 04:50N 49°29' W 000°08'0 0.0
2017-Jul-10 04:14N 49°29' W 000°08'0 0.0
2017-Jul-10 03:50N 49°29' W 000°08'0 0.0
2017-Jul-10 03:14N 49°29' W 000°08'0 0.0
2017-Jul-10 02:56N 49°29' W 000°08'0 0.1
2017-Jul-10 02:26N 49°29' W 000°07'0 0.1
2017-Jul-10 01:56N 49°29' W 000°07'0 0.0
2017-Jul-10 01:14N 49°29' W 000°07'0 0.0
2017-Jul-10 00:56N 49°29' W 000°07'0 0.0
2017-Jul-10 00:26N 49°29' W 000°07'0 0.0
2017-Jul-09 23:59N 49°29' W 000°07'0 0.0
2017-Jul-09 23:29N 49°29' W 000°07'0 0.0
2017-Jul-09 22:56N 49°29' W 000°07'0 0.0
2017-Jul-09 22:29N 49°29' W 000°07'0 0.0
2017-Jul-09 21:59N 49°29' W 000°07'0 0.0
2017-Jul-09 21:29N 49°29' W 000°07'0 0.0
2017-Jul-09 20:59N 49°29' W 000°07'0 0.0
2017-Jul-09 20:29N 49°29' W 000°07'0 0.0
2017-Jul-09 19:59N 49°29' W 000°07'0 0.1
2017-Jul-09 19:26N 49°29' W 000°07'0 0.0
2017-Jul-09 18:44N 49°29' W 000°07'0 0.0
2017-Jul-09 18:26N 49°29' W 000°07'0 0.0
2017-Jul-09 17:17N 49°29' W 000°08'0 0.0
2017-Jul-09 16:56N 49°29' W 000°08'0 0.0
2017-Jul-09 16:23N 49°29' W 000°08'0 0.0
2017-Jul-09 15:59N 49°29' W 000°08'0 0.0
2017-Jul-09 15:26N 49°29' W 000°08'0 0.0
2017-Jul-09 14:59N 49°29' W 000°08'0 0.0
2017-Jul-09 14:29N 49°29' W 000°08'0 0.0
2017-Jul-09 13:59N 49°29' W 000°08'0 0.0
2017-Jul-09 13:29N 49°29' W 000°08'0 0.2
2017-Jul-09 13:00N 49°29' W 000°07'1 2.8
2017-Jul-09 12:30N 49°29' W 000°05'5 9.9
2017-Jul-09 12:00N 49°27' E 000°02'510.6
2017-Jul-09 11:30N 49°26' E 000°10'510.7
2017-Jul-09 11:00N 49°26' E 000°18'510.1
2017-Jul-09 10:30N 49°27' E 000°25'  
Track history (hours):
 
Tides and Currents Weather Stations Pressure Air Temp Water Temp Dewpoint Dewpoint Depression Visibility Wind Speed Wind Dir Waves Ship Positions

Northsea Beta

Last reported at 2017-Jul-17 08:04 UTC. Time now 2017-Jul-23 06:42 UTC.
Position N 33°11' W 008°40'.

Length 110 m; draft 5.7 m.

Type: Tanker. MMSI: 248970000.

Date/timePositionNaut miles runAvg speedWind from/ knotsBaromVisibWave heightAir tempDewpointWater temp
2017-Jul-17 08:04N 33°11' W 008°40'0 0.1
2017-Jul-17 07:58N 33°11' W 008°40'4 0.3
2017-Jul-16 18:12N 33°15' W 008°42'211.2
2017-Jul-16 18:01N 33°16' W 008°43'510.5
2017-Jul-16 17:30N 33°22' W 008°45'510.4
2017-Jul-16 17:00N 33°27' W 008°47'510.3
2017-Jul-16 16:31N 33°31' W 008°49'510.2
2017-Jul-16 16:01N 33°36' W 008°51'510.0
2017-Jul-16 15:30N 33°41' W 008°53'510.2
2017-Jul-16 15:00N 33°46' W 008°55'510.3
2017-Jul-16 14:30N 33°51' W 008°57'5 9.9
2017-Jul-16 14:01N 33°55' W 008°58'5 9.1
2017-Jul-16 13:30N 33°60' W 008°60'5 9.4
2017-Jul-16 13:00N 34°04' W 009°01'5 9.4
2017-Jul-16 12:31N 34°09' W 009°03'5 9.3
2017-Jul-16 12:00N 34°13' W 009°05'5 9.3
2017-Jul-16 11:31N 34°18' W 009°07'5 9.2
2017-Jul-16 11:01N 34°22' W 009°08'5 9.1
2017-Jul-16 10:31N 34°26' W 009°10'5 9.2
2017-Jul-16 10:00N 34°31' W 009°12'5 9.2
2017-Jul-16 09:31N 34°35' W 009°13'5 9.1
2017-Jul-16 09:00N 34°39' W 009°15'5 9.2
2017-Jul-16 08:30N 34°44' W 009°17'510.3
2017-Jul-16 08:00N 34°49' W 009°19'612.0
2017-Jul-16 07:31N 34°54' W 009°21'611.3
2017-Jul-16 07:00N 34°60' W 009°23'510.0
2017-Jul-16 06:31N 35°04' W 009°25'510.2
2017-Jul-16 06:01N 35°09' W 009°27'510.3
2017-Jul-16 05:30N 35°14' W 009°29'510.1
2017-Jul-16 05:01N 35°19' W 009°31'510.0
2017-Jul-16 04:30N 35°24' W 009°32'510.1
2017-Jul-16 04:00N 35°29' W 009°34'510.1
2017-Jul-16 03:30N 35°33' W 009°36'510.2
2017-Jul-16 03:01N 35°38' W 009°39'510.4
2017-Jul-16 02:31N 35°43' W 009°40'510.4
2017-Jul-16 02:00N 35°48' W 009°42'510.3
2017-Jul-16 01:30N 35°53' W 009°44'510.4
2017-Jul-16 01:01N 35°58' W 009°46'510.2
2017-Jul-16 00:30N 36°03' W 009°48'510.2
2017-Jul-16 00:01N 36°07' W 009°50'510.2
2017-Jul-15 23:31N 36°12' W 009°52'510.2
2017-Jul-15 23:01N 36°17' W 009°54'510.0
2017-Jul-15 22:30N 36°22' W 009°56'510.0
2017-Jul-15 22:01N 36°27' W 009°58'510.1
2017-Jul-15 21:31N 36°31' W 009°60'510.0
2017-Jul-15 21:01N 36°36' W 010°01'510.4
2017-Jul-15 20:30N 36°42' W 010°01'510.3
2017-Jul-15 20:00N 36°47' W 010°01'510.3
2017-Jul-15 19:30N 36°52' W 010°01'510.2
2017-Jul-15 19:00N 36°57' W 010°01'510.2
2017-Jul-15 18:30N 37°02' W 010°01'510.2
2017-Jul-15 18:00N 37°07' W 010°01'510.4
2017-Jul-15 17:30N 37°13' W 010°02'510.3
2017-Jul-15 17:00N 37°18' W 010°02'510.1
2017-Jul-15 16:30N 37°23' W 010°02'510.2
2017-Jul-15 16:00N 37°28' W 010°02'510.3
2017-Jul-15 15:31N 37°33' W 010°02'510.2
2017-Jul-15 15:00N 37°38' W 010°02'1110.4
2017-Jul-15 14:00N 37°49' W 010°02'510.1
2017-Jul-15 13:30N 37°54' W 010°02'510.4
2017-Jul-15 13:01N 37°59' W 010°02'611.0
2017-Jul-15 12:30N 38°04' W 010°02'510.7
2017-Jul-15 12:01N 38°09' W 010°02'611.3
2017-Jul-15 11:30N 38°15' W 010°02'611.1
2017-Jul-15 11:00N 38°21' W 010°03'510.2
2017-Jul-15 10:31N 38°26' W 010°03'510.1
2017-Jul-15 10:00N 38°31' W 010°03'5 9.9
2017-Jul-15 09:31N 38°36' W 010°05'5 9.9
2017-Jul-15 09:00N 38°41' W 010°06'5 9.8
2017-Jul-15 08:30N 38°45' W 010°06'5 9.9
2017-Jul-15 08:00N 38°50' W 010°06'510.1
2017-Jul-15 07:30N 38°55' W 010°06'510.3
2017-Jul-15 07:00N 39°01' W 010°06'510.0
2017-Jul-15 06:30N 39°05' W 010°06'510.2
2017-Jul-15 06:00N 39°11' W 010°06'510.2
2017-Jul-15 05:31N 39°16' W 010°07'710.9
2017-Jul-15 04:54N 39°22' W 010°06'11110.5
2017-Jul-14 18:20N 41°13' W 010°06'3910.4
2017-Jul-14 14:35N 41°52' W 010°06'110.8
2017-Jul-14 14:29N 41°53' W 010°06'610.2
2017-Jul-14 13:51N 41°60' W 010°06'  
2017-Jul-12 03:36N 50°04' W 001°60'113.5
2017-Jul-12 03:30N 50°04' W 001°58'612.7
2017-Jul-12 03:00N 50°01' W 001°49'612.5
2017-Jul-12 02:30N 49°58' W 001°41'612.2
2017-Jul-12 02:00N 49°56' W 001°32'611.8
2017-Jul-12 01:30N 49°53' W 001°24'611.0
2017-Jul-12 01:00N 49°51' W 001°16'510.2
2017-Jul-12 00:30N 49°49' W 001°09'5 9.4
2017-Jul-12 00:00N 49°47' W 001°02'31 7.1
2017-Jul-11 19:38N 49°33' W 000°19'3 7.4
2017-Jul-11 19:18N 49°32' W 000°16'2 7.5
2017-Jul-11 18:58N 49°31' W 000°12'4 7.6
2017-Jul-11 18:30N 49°29' W 000°08'0 0.6
2017-Jul-11 17:59N 49°29' W 000°08'0 0.0
2017-Jul-11 17:26N 49°29' W 000°08'0 0.0
2017-Jul-11 16:56N 49°29' W 000°08'0 0.0
2017-Jul-11 16:26N 49°29' W 000°08'0 0.0
2017-Jul-11 15:57N 49°29' W 000°08'0 0.0
2017-Jul-11 15:20N 49°29' W 000°08'0 0.0
2017-Jul-11 14:50N 49°29' W 000°08'0 0.0
2017-Jul-11 14:14N 49°29' W 000°07'0 0.2
2017-Jul-11 13:59N 49°29' W 000°07'0 0.1
2017-Jul-11 13:29N 49°29' W 000°07'0 0.0
2017-Jul-11 12:59N 49°29' W 000°07'0 0.0
2017-Jul-11 12:29N 49°29' W 000°07'0 0.0
2017-Jul-11 11:59N 49°29' W 000°07'0 0.0
2017-Jul-11 11:29N 49°29' W 000°07'0 0.0
2017-Jul-11 10:56N 49°29' W 000°07'0 0.0
2017-Jul-11 10:23N 49°29' W 000°07'0 0.0
2017-Jul-11 09:56N 49°29' W 000°07'0 0.0
2017-Jul-11 09:29N 49°29' W 000°07'0 0.0
2017-Jul-11 08:59N 49°29' W 000°07'0 0.1
2017-Jul-11 08:29N 49°29' W 000°07'0 0.1
2017-Jul-11 07:56N 49°29' W 000°07'0 0.0
2017-Jul-11 07:26N 49°29' W 000°07'0 0.0
2017-Jul-11 06:59N 49°29' W 000°07'0 0.0
2017-Jul-11 05:20N 49°29' W 000°07'0 0.0
2017-Jul-11 04:47N 49°29' W 000°08'0 0.0
2017-Jul-11 04:20N 49°29' W 000°07'0 0.0
2017-Jul-11 03:38N 49°29' W 000°07'0 0.0
2017-Jul-11 03:26N 49°29' W 000°07'0 0.1
2017-Jul-11 02:56N 49°29' W 000°07'0 0.1
2017-Jul-11 02:20N 49°29' W 000°07'0 0.0
2017-Jul-11 01:59N 49°29' W 000°07'0 0.1
2017-Jul-11 01:26N 49°29' W 000°07'0 0.0
2017-Jul-11 00:59N 49°29' W 000°07'0 0.0
2017-Jul-11 00:29N 49°29' W 000°07'0 0.0
2017-Jul-10 23:59N 49°29' W 000°07'0 0.0
2017-Jul-10 23:29N 49°29' W 000°07'0 0.0
2017-Jul-10 22:59N 49°29' W 000°07'0 0.0
2017-Jul-10 22:29N 49°29' W 000°07'0 0.0
2017-Jul-10 21:59N 49°29' W 000°07'0 0.0
2017-Jul-10 21:29N 49°29' W 000°07'0 0.0
2017-Jul-10 20:59N 49°29' W 000°07'0 0.0
2017-Jul-10 20:29N 49°29' W 000°07'0 0.0
2017-Jul-10 19:56N 49°29' W 000°07'0 0.0
2017-Jul-10 19:23N 49°29' W 000°07'0 0.1
2017-Jul-10 18:59N 49°29' W 000°07'0 0.0
2017-Jul-10 17:47N 49°29' W 000°07'0 0.0
2017-Jul-10 17:26N 49°29' W 000°07'0 0.0
2017-Jul-10 16:20N 49°29' W 000°08'0 0.0
2017-Jul-10 15:56N 49°29' W 000°08'0 0.0
2017-Jul-10 15:20N 49°29' W 000°08'0 0.0
2017-Jul-10 14:53N 49°29' W 000°08'0 0.0
2017-Jul-10 14:29N 49°29' W 000°08'0 0.1
2017-Jul-10 13:44N 49°29' W 000°07'0 0.1
2017-Jul-10 13:26N 49°29' W 000°07'0 0.0
2017-Jul-10 12:50N 49°29' W 000°07'0 0.1
2017-Jul-10 12:23N 49°29' W 000°07'0 0.0
2017-Jul-10 11:59N 49°29' W 000°07'0 0.0
2017-Jul-10 11:26N 49°29' W 000°07'0 0.0
2017-Jul-10 10:56N 49°29' W 000°07'0 0.0
2017-Jul-10 10:29N 49°29' W 000°07'0 0.0
2017-Jul-10 09:59N 49°29' W 000°07'0 0.0
2017-Jul-10 09:29N 49°29' W 000°07'0 0.0
2017-Jul-10 08:59N 49°29' W 000°07'0 0.0
2017-Jul-10 08:29N 49°29' W 000°07'0 0.0
2017-Jul-10 07:59N 49°29' W 000°07'0 0.0
2017-Jul-10 07:26N 49°29' W 000°07'0 0.0
2017-Jul-10 06:59N 49°29' W 000°07'0 0.0
2017-Jul-10 06:26N 49°29' W 000°07'0 0.1
2017-Jul-10 05:59N 49°29' W 000°07'0 0.1
2017-Jul-10 05:29N 49°29' W 000°07'0 0.1
2017-Jul-10 04:50N 49°29' W 000°08'0 0.0
2017-Jul-10 04:14N 49°29' W 000°08'0 0.0
2017-Jul-10 03:50N 49°29' W 000°08'0 0.0
2017-Jul-10 03:14N 49°29' W 000°08'0 0.0
2017-Jul-10 02:56N 49°29' W 000°08'0 0.1
2017-Jul-10 02:26N 49°29' W 000°07'0 0.1
2017-Jul-10 01:56N 49°29' W 000°07'0 0.0
2017-Jul-10 01:14N 49°29' W 000°07'0 0.0
2017-Jul-10 00:56N 49°29' W 000°07'0 0.0
2017-Jul-10 00:26N 49°29' W 000°07'0 0.0
2017-Jul-09 23:59N 49°29' W 000°07'0 0.0
2017-Jul-09 23:29N 49°29' W 000°07'0 0.0
2017-Jul-09 22:56N 49°29' W 000°07'0 0.0
2017-Jul-09 22:29N 49°29' W 000°07'0 0.0
2017-Jul-09 21:59N 49°29' W 000°07'0 0.0
2017-Jul-09 21:29N 49°29' W 000°07'0 0.0
2017-Jul-09 20:59N 49°29' W 000°07'0 0.0
2017-Jul-09 20:29N 49°29' W 000°07'0 0.0
2017-Jul-09 19:59N 49°29' W 000°07'0 0.1
2017-Jul-09 19:26N 49°29' W 000°07'0 0.0
2017-Jul-09 18:44N 49°29' W 000°07'0 0.0
2017-Jul-09 18:26N 49°29' W 000°07'0 0.0
2017-Jul-09 17:17N 49°29' W 000°08'0 0.0
2017-Jul-09 16:56N 49°29' W 000°08'0 0.0
2017-Jul-09 16:23N 49°29' W 000°08'0 0.0
2017-Jul-09 15:59N 49°29' W 000°08'0 0.0
2017-Jul-09 15:26N 49°29' W 000°08'0 0.0
2017-Jul-09 14:59N 49°29' W 000°08'0 0.0
2017-Jul-09 14:29N 49°29' W 000°08'0 0.0
2017-Jul-09 13:59N 49°29' W 000°08'0 0.0
2017-Jul-09 13:29N 49°29' W 000°08'0 0.2
2017-Jul-09 13:00N 49°29' W 000°07'1 2.8
2017-Jul-09 12:30N 49°29' W 000°05'5 9.9
2017-Jul-09 12:00N 49°27' E 000°02'510.6
2017-Jul-09 11:30N 49°26' E 000°10'510.7
2017-Jul-09 11:00N 49°26' E 000°18'510.1
2017-Jul-09 10:30N 49°27' E 000°25'  

Dump ship's entire track history